createdAt,value
2019-01-09T00:01:32.078Z,3.60
2019-01-09T00:04:01.239Z,3.50
2019-01-09T00:06:30.196Z,3.50
2019-01-09T00:08:59.089Z,3.40
2019-01-09T00:11:28.507Z,3.40
2019-01-09T00:13:57.517Z,3.30
2019-01-09T00:16:26.489Z,3.40
2019-01-09T00:18:55.423Z,3.40
2019-01-09T00:21:24.370Z,3.30
2019-01-09T00:23:53.392Z,3.30
2019-01-09T00:26:22.470Z,3.30
2019-01-09T00:28:51.342Z,3.30
2019-01-09T00:31:20.429Z,3.30
2019-01-09T00:33:49.390Z,3.30
2019-01-09T00:36:18.180Z,3.30
2019-01-09T00:38:47.223Z,3.40
2019-01-09T00:41:16.214Z,3.40
2019-01-09T00:43:45.100Z,3.40
2019-01-09T00:46:14.032Z,3.40
2019-01-09T00:48:43.034Z,3.40
2019-01-09T00:51:12.025Z,3.40
2019-01-09T00:53:41.056Z,3.30
2019-01-09T00:56:10.102Z,3.30
2019-01-09T00:58:39.113Z,3.30
2019-01-09T01:01:08.101Z,3.30
2019-01-09T01:04:04.164Z,3.30
2019-01-09T01:06:52.314Z,3.30
2019-01-09T01:10:11.433Z,3.30
2019-01-09T01:13:27.510Z,3.30
2019-01-09T01:16:18.630Z,3.40
2019-01-09T01:19:27.749Z,3.30
2019-01-09T01:22:13.207Z,3.30
2019-01-09T01:25:35.943Z,3.30
2019-01-09T01:28:14.876Z,3.30
2019-01-09T01:31:43.830Z,3.20
2019-01-09T01:34:48.399Z,3.30
2019-01-09T01:37:42.498Z,3.30
2019-01-09T01:40:42.570Z,3.20
2019-01-09T01:43:43.371Z,3.30
2019-01-09T01:46:48.580Z,3.40
2019-01-09T01:49:49.494Z,3.40
2019-01-09T01:52:53.041Z,3.40
2019-01-09T01:55:59.342Z,3.40
2019-01-09T01:59:18.709Z,3.40
2019-01-09T02:02:27.857Z,3.50
2019-01-09T02:05:22.981Z,3.40
2019-01-09T02:08:30.853Z,3.40
2019-01-09T02:11:27.583Z,3.40
2019-01-09T02:14:40.620Z,3.40
2019-01-09T02:17:50.370Z,3.40
2019-01-09T02:20:37.276Z,3.40
2019-01-09T02:23:33.585Z,3.50
2019-01-09T02:26:18.437Z,3.40
2019-01-09T02:29:36.208Z,3.40
2019-01-09T02:32:32.837Z,3.30
2019-01-09T02:35:01.959Z,3.50
2019-01-09T02:37:30.957Z,3.40
2019-01-09T02:39:59.859Z,3.40
2019-01-09T02:42:29.646Z,3.40
2019-01-09T02:44:58.502Z,3.40
2019-01-09T02:47:27.366Z,3.40
2019-01-09T02:49:56.312Z,3.40
2019-01-09T02:52:25.302Z,3.40
2019-01-09T02:54:54.364Z,3.40
2019-01-09T02:57:24.601Z,3.40
2019-01-09T02:59:53.754Z,3.40
2019-01-09T03:02:22.710Z,3.50
2019-01-09T03:04:51.635Z,3.50
2019-01-09T03:07:20.620Z,3.50
2019-01-09T03:09:49.804Z,3.50
2019-01-09T03:12:18.823Z,3.50
2019-01-09T03:14:47.867Z,3.50
2019-01-09T03:17:16.922Z,3.50
2019-01-09T03:19:45.990Z,3.50
2019-01-09T03:22:14.997Z,3.50
2019-01-09T03:24:43.987Z,3.60
2019-01-09T03:27:12.816Z,3.60
2019-01-09T03:29:41.700Z,3.60
2019-01-09T03:32:10.809Z,3.50
2019-01-09T03:34:39.738Z,3.50
2019-01-09T03:37:08.639Z,3.50
2019-01-09T03:39:37.612Z,3.50
2019-01-09T03:42:06.620Z,3.50
2019-01-09T03:44:35.571Z,3.40
2019-01-09T03:47:04.689Z,3.40
2019-01-09T03:49:33.662Z,3.40
2019-01-09T03:52:02.508Z,3.30
2019-01-09T03:54:31.549Z,3.30
2019-01-09T03:57:00.644Z,3.20
2019-01-09T03:59:29.541Z,3.20
2019-01-09T04:01:58.444Z,3.20
2019-01-09T04:04:27.506Z,3.20
2019-01-09T04:06:56.292Z,3.20
2019-01-09T04:09:25.317Z,3.20
2019-01-09T04:11:54.422Z,3.20
2019-01-09T04:14:23.326Z,3.20
2019-01-09T04:16:52.299Z,3.30
2019-01-09T04:19:21.282Z,3.30
2019-01-09T04:21:50.303Z,3.30
2019-01-09T04:24:19.117Z,3.20
2019-01-09T04:26:48.179Z,3.40
2019-01-09T04:29:17.172Z,3.30
2019-01-09T04:31:46.494Z,3.30
2019-01-09T04:34:15.413Z,3.30
2019-01-09T04:36:51.300Z,3.30
2019-01-09T04:39:14.931Z,3.20
2019-01-09T04:41:43.867Z,3.30
2019-01-09T04:44:12.838Z,3.20
2019-01-09T04:46:41.775Z,3.30
2019-01-09T04:49:10.642Z,3.20
2019-01-09T04:51:39.451Z,3.10
2019-01-09T04:54:08.428Z,3.10
2019-01-09T04:56:37.348Z,3.10
2019-01-09T04:59:06.776Z,3.00
2019-01-09T05:01:35.659Z,2.90
2019-01-09T05:04:04.664Z,2.90
2019-01-09T05:06:33.730Z,2.80
2019-01-09T05:09:03.111Z,2.70
2019-01-09T05:11:32.120Z,2.70
2019-01-09T05:14:00.998Z,2.70
2019-01-09T05:16:32.851Z,2.80
2019-01-09T05:19:01.753Z,2.80
2019-01-09T05:21:30.811Z,2.70
2019-01-09T05:23:59.782Z,2.70
2019-01-09T05:26:28.672Z,2.70
2019-01-09T05:28:57.667Z,2.60
2019-01-09T05:31:26.538Z,2.60
2019-01-09T05:33:55.500Z,2.60
2019-01-09T05:36:24.580Z,2.60
2019-01-09T05:38:53.487Z,2.60
2019-01-09T05:41:22.468Z,2.60
2019-01-09T05:43:51.451Z,2.60
2019-01-09T05:46:20.397Z,2.60
2019-01-09T05:48:49.483Z,2.50
2019-01-09T05:51:18.518Z,2.50
2019-01-09T05:53:47.651Z,2.40
2019-01-09T05:56:16.614Z,2.50
2019-01-09T05:58:45.584Z,2.50
2019-01-09T06:01:14.554Z,2.50
2019-01-09T06:03:43.501Z,2.40
2019-01-09T06:06:12.371Z,2.40
2019-01-09T06:08:41.392Z,2.30
2019-01-09T06:11:10.371Z,2.30
2019-01-09T06:13:39.194Z,2.20
2019-01-09T06:16:08.050Z,2.20
2019-01-09T06:18:37.029Z,2.10
2019-01-09T06:21:06.027Z,2.10
2019-01-09T06:23:35.040Z,2.20
2019-01-09T06:26:04.122Z,2.30
2019-01-09T06:28:33.109Z,2.30
2019-01-09T06:31:02.046Z,2.30
2019-01-09T06:33:30.982Z,2.20
2019-01-09T06:35:59.882Z,2.20
2019-01-09T06:38:29.616Z,2.20
2019-01-09T06:40:58.735Z,2.10
2019-01-09T06:43:27.732Z,2.10
2019-01-09T06:45:56.686Z,2.10
2019-01-09T06:48:25.629Z,2.10
2019-01-09T06:50:54.544Z,2.10
2019-01-09T06:53:23.616Z,2.10
2019-01-09T06:55:52.804Z,2.00
2019-01-09T06:58:21.824Z,2.00
2019-01-09T07:00:50.632Z,2.00
2019-01-09T07:03:19.884Z,1.90
2019-01-09T07:05:48.908Z,1.80
2019-01-09T07:08:17.999Z,1.70
2019-01-09T07:10:46.969Z,1.60
2019-01-09T07:13:16.084Z,1.70
2019-01-09T07:15:45.491Z,1.60
2019-01-09T07:18:14.402Z,1.60
2019-01-09T07:20:43.591Z,1.60
2019-01-09T07:23:12.600Z,1.60
2019-01-09T07:25:41.562Z,1.60
2019-01-09T07:28:10.582Z,1.60
2019-01-09T07:30:39.559Z,1.60
2019-01-09T07:33:08.547Z,1.60
2019-01-09T07:35:37.385Z,1.60
2019-01-09T07:38:06.375Z,1.70
2019-01-09T07:40:35.785Z,1.80
2019-01-09T07:43:04.752Z,1.80
2019-01-09T07:45:33.757Z,1.80
2019-01-09T07:48:02.712Z,1.80
2019-01-09T07:50:31.692Z,1.80
2019-01-09T07:53:00.827Z,1.80
2019-01-09T07:55:29.775Z,1.70
2019-01-09T07:57:58.619Z,1.80
2019-01-09T08:00:27.464Z,1.90
2019-01-09T08:02:56.383Z,1.80
2019-01-09T08:05:25.288Z,1.90
2019-01-09T08:07:54.407Z,1.90
2019-01-09T08:10:23.587Z,1.80
2019-01-09T08:12:52.384Z,1.80
2019-01-09T08:15:21.261Z,1.80
2019-01-09T08:17:50.139Z,1.90
2019-01-09T08:20:19.078Z,1.90
2019-01-09T08:22:47.940Z,1.90
2019-01-09T08:25:16.876Z,1.80
2019-01-09T08:27:45.830Z,1.70
2019-01-09T08:30:14.789Z,1.70
2019-01-09T08:32:43.790Z,1.60
2019-01-09T08:35:12.718Z,1.50
2019-01-09T08:37:41.692Z,1.60
2019-01-09T08:40:11.509Z,1.60
2019-01-09T08:42:41.135Z,1.70
2019-01-09T08:45:10.228Z,1.70
2019-01-09T08:47:39.075Z,1.80
2019-01-09T08:50:09.073Z,1.80
2019-01-09T08:52:37.975Z,1.80
2019-01-09T08:55:08.455Z,1.70
2019-01-09T08:57:37.403Z,1.80
2019-01-09T09:00:07.919Z,1.80
2019-01-09T09:02:36.929Z,1.80
2019-01-09T09:05:05.909Z,1.80
2019-01-09T09:07:34.919Z,1.90
2019-01-09T09:10:04.080Z,1.90
2019-01-09T09:12:52.129Z,2.10
2019-01-09T09:15:20.953Z,2.20
2019-01-09T09:17:49.892Z,2.30
2019-01-09T09:20:18.790Z,2.50
2019-01-09T09:22:47.654Z,2.60
2019-01-09T09:25:16.886Z,2.70
2019-01-09T09:27:45.849Z,2.80
2019-01-09T09:30:15.476Z,2.90
2019-01-09T09:32:44.464Z,2.90
2019-01-09T09:35:13.499Z,2.90
2019-01-09T09:37:42.410Z,2.90
2019-01-09T09:40:14.034Z,2.90
2019-01-09T09:42:42.926Z,3.00
2019-01-09T09:45:11.894Z,3.10
2019-01-09T09:47:40.795Z,3.10
2019-01-09T09:50:11.344Z,3.20
2019-01-09T09:52:40.300Z,3.20
2019-01-09T09:55:12.968Z,3.30
2019-01-09T09:57:40.177Z,3.50
2019-01-09T10:00:12.879Z,3.60
2019-01-09T10:02:42.024Z,3.70
2019-01-09T10:05:10.910Z,3.80
2019-01-09T10:07:39.913Z,3.70
2019-01-09T10:10:10.599Z,3.60
2019-01-09T10:12:39.518Z,3.50
2019-01-09T10:15:09.421Z,3.50
2019-01-09T10:17:38.233Z,3.50
2019-01-09T10:20:10.396Z,3.50
2019-01-09T10:22:39.337Z,3.50
2019-01-09T10:25:08.129Z,3.60
2019-01-09T10:27:36.952Z,3.60
2019-01-09T10:30:08.771Z,3.70
2019-01-09T10:32:37.670Z,3.90
2019-01-09T10:35:06.653Z,4.00
2019-01-09T10:37:35.558Z,4.10
2019-01-09T10:40:05.213Z,3.90
2019-01-09T10:42:34.083Z,3.90
2019-01-09T10:45:02.897Z,3.90
2019-01-09T10:47:31.850Z,4.00
2019-01-09T10:50:00.848Z,4.10
2019-01-09T10:52:30.310Z,4.00
2019-01-09T10:54:59.165Z,3.80
2019-01-09T10:57:28.147Z,3.80
2019-01-09T10:59:57.102Z,4.00
2019-01-09T11:02:26.000Z,4.10
2019-01-09T11:04:54.937Z,4.10
2019-01-09T11:07:23.955Z,4.20
2019-01-09T11:09:52.811Z,4.30
2019-01-09T11:12:21.979Z,4.20
2019-01-09T11:14:50.860Z,4.20
2019-01-09T11:17:19.804Z,4.10
2019-01-09T11:19:48.769Z,4.00
2019-01-09T11:22:17.646Z,4.00
2019-01-09T11:24:46.552Z,4.00
2019-01-09T11:27:15.350Z,4.00
2019-01-09T11:29:44.292Z,3.90
2019-01-09T11:32:13.122Z,4.00
2019-01-09T11:34:42.095Z,3.90
2019-01-09T11:37:10.959Z,4.00
2019-01-09T11:39:39.820Z,4.00
2019-01-09T11:42:08.771Z,4.00
2019-01-09T11:44:37.538Z,4.00
2019-01-09T11:47:06.468Z,4.00
2019-01-09T11:49:35.382Z,4.00
2019-01-09T11:52:04.294Z,4.00
2019-01-09T11:54:33.271Z,4.10
2019-01-09T11:57:02.231Z,4.00
2019-01-09T11:59:31.158Z,3.90
2019-01-09T12:02:00.087Z,3.90
2019-01-09T12:04:29.039Z,3.90
2019-01-09T12:06:57.909Z,3.90
2019-01-09T12:09:26.817Z,3.90
2019-01-09T12:11:55.770Z,3.90
2019-01-09T12:14:24.594Z,3.80
2019-01-09T12:16:53.411Z,3.80
2019-01-09T12:19:22.307Z,3.90
2019-01-09T12:21:51.222Z,4.00
2019-01-09T12:24:20.118Z,4.00
2019-01-09T12:26:50.025Z,4.00
2019-01-09T12:29:18.999Z,3.90
2019-01-09T12:31:47.900Z,3.90
2019-01-09T12:34:16.832Z,3.90
2019-01-09T12:36:45.722Z,3.80
2019-01-09T12:39:14.640Z,3.60
2019-01-09T12:41:43.519Z,3.40
2019-01-09T12:44:12.513Z,3.40
2019-01-09T12:46:41.423Z,3.30
2019-01-09T12:49:10.375Z,3.50
2019-01-09T12:51:39.256Z,3.60
2019-01-09T12:54:08.233Z,3.90
2019-01-09T12:56:37.102Z,4.20
2019-01-09T12:59:05.874Z,4.40
2019-01-09T13:01:34.780Z,4.30
2019-01-09T13:04:03.723Z,4.20
2019-01-09T13:06:32.641Z,4.20
2019-01-09T13:09:01.636Z,4.10
2019-01-09T13:11:30.516Z,4.00
2019-01-09T13:13:59.283Z,4.00
2019-01-09T13:16:28.223Z,4.00
2019-01-09T13:18:57.113Z,3.90
2019-01-09T13:21:25.970Z,3.90
2019-01-09T13:23:54.906Z,3.80
2019-01-09T13:26:23.891Z,3.60
2019-01-09T13:28:52.698Z,3.40
2019-01-09T13:31:21.621Z,3.20
2019-01-09T13:33:50.629Z,3.00
2019-01-09T13:36:19.544Z,2.90
2019-01-09T13:38:48.461Z,2.90
2019-01-09T13:41:17.350Z,2.90
2019-01-09T13:43:46.371Z,3.00
2019-01-09T13:46:15.276Z,3.00
2019-01-09T13:48:44.339Z,3.00
2019-01-09T13:51:13.215Z,2.90
2019-01-09T13:53:42.153Z,2.90
2019-01-09T13:56:11.192Z,3.00
2019-01-09T13:58:40.064Z,3.00
2019-01-09T14:01:09.010Z,3.10
2019-01-09T14:03:37.872Z,3.10
2019-01-09T14:06:06.946Z,3.00
2019-01-09T14:08:35.871Z,3.10
2019-01-09T14:11:05.226Z,3.20
2019-01-09T14:13:34.035Z,3.30
2019-01-09T14:16:02.967Z,3.20
2019-01-09T14:18:31.975Z,3.30
2019-01-09T14:21:00.962Z,3.30
2019-01-09T14:23:30.069Z,3.30
2019-01-09T14:25:59.015Z,3.40
2019-01-09T14:28:27.865Z,3.40
2019-01-09T14:30:56.750Z,3.40
2019-01-09T14:33:25.791Z,3.40
2019-01-09T14:35:54.692Z,3.30
2019-01-09T14:38:23.491Z,3.40
2019-01-09T14:40:52.432Z,3.30
2019-01-09T14:43:21.436Z,3.30
2019-01-09T14:45:50.501Z,3.30
2019-01-09T14:48:19.627Z,3.40
2019-01-09T14:50:50.083Z,3.30
2019-01-09T14:53:19.384Z,3.40
2019-01-09T14:55:48.337Z,3.30
2019-01-09T14:58:17.365Z,3.30
2019-01-09T15:00:46.245Z,3.30
2019-01-09T15:03:15.320Z,3.30
2019-01-09T15:05:44.324Z,3.20
2019-01-09T15:08:13.444Z,3.20
2019-01-09T15:10:42.463Z,3.20
2019-01-09T15:13:14.633Z,3.20
2019-01-09T15:15:43.548Z,3.30
2019-01-09T15:18:12.640Z,3.30
2019-01-09T15:20:41.536Z,3.30
2019-01-09T15:23:10.553Z,3.30
2019-01-09T15:25:39.477Z,3.20
2019-01-09T15:28:08.335Z,3.20
2019-01-09T15:30:37.392Z,3.30
2019-01-09T15:33:06.456Z,3.30
2019-01-09T15:35:40.202Z,3.20
2019-01-09T15:38:09.205Z,3.00
2019-01-09T15:40:38.310Z,2.90
2019-01-09T15:43:07.196Z,2.80
2019-01-09T15:45:36.135Z,2.80
2019-01-09T15:48:05.152Z,2.80
2019-01-09T15:50:34.883Z,2.80
2019-01-09T15:53:04.031Z,2.80
2019-01-09T15:55:32.965Z,2.90
2019-01-09T15:58:02.068Z,2.90
2019-01-09T16:00:33.920Z,2.90
2019-01-09T16:03:03.048Z,3.00
2019-01-09T16:05:31.895Z,3.00
2019-01-09T16:08:00.802Z,3.00
2019-01-09T16:10:29.851Z,2.90
2019-01-09T16:12:58.851Z,2.90
2019-01-09T16:15:27.730Z,2.90
2019-01-09T16:17:56.539Z,2.90
2019-01-09T16:20:25.541Z,2.90
2019-01-09T16:22:54.361Z,2.90
2019-01-09T16:25:23.283Z,2.90
2019-01-09T16:27:52.320Z,2.90
2019-01-09T16:30:34.693Z,2.80
2019-01-09T16:33:03.628Z,2.80
2019-01-09T16:35:33.970Z,2.80
2019-01-09T16:38:02.815Z,2.80
2019-01-09T16:40:31.812Z,2.80
2019-01-09T16:43:00.689Z,2.80
2019-01-09T16:45:29.681Z,2.80
2019-01-09T16:47:58.794Z,2.70
2019-01-09T16:50:27.699Z,2.70
2019-01-09T16:52:56.712Z,2.70
2019-01-09T16:55:26.048Z,2.70
2019-01-09T16:57:55.078Z,2.60
2019-01-09T17:00:26.511Z,2.70
2019-01-09T17:02:55.405Z,2.60
2019-01-09T17:05:24.359Z,2.70
2019-01-09T17:07:53.653Z,2.70
2019-01-09T17:10:22.610Z,2.70
2019-01-09T17:12:51.572Z,2.70
2019-01-09T17:15:20.750Z,2.80
2019-01-09T17:17:49.818Z,2.70
2019-01-09T17:20:21.727Z,2.70
2019-01-09T17:22:50.861Z,2.70
2019-01-09T17:25:20.324Z,2.70
2019-01-09T17:27:49.422Z,2.70
2019-01-09T17:30:23.568Z,2.70
2019-01-09T17:32:52.601Z,2.80
2019-01-09T17:35:21.622Z,2.80
2019-01-09T17:37:50.607Z,2.80
2019-01-09T17:40:19.764Z,2.70
2019-01-09T17:42:48.937Z,2.70
2019-01-09T17:45:17.942Z,2.70
2019-01-09T17:47:47.015Z,2.70
2019-01-09T17:50:35.792Z,2.70
2019-01-09T17:53:04.791Z,2.70
2019-01-09T17:55:33.698Z,2.70
2019-01-09T17:58:02.673Z,2.70
2019-01-09T18:00:37.739Z,2.70
2019-01-09T18:03:06.727Z,2.60
2019-01-09T18:05:35.635Z,2.50
2019-01-09T18:08:10.354Z,2.50
2019-01-09T18:10:36.242Z,2.50
2019-01-09T18:13:05.216Z,2.40
2019-01-09T18:15:34.323Z,2.50
2019-01-09T18:18:03.357Z,2.50
2019-01-09T18:20:32.352Z,2.50
2019-01-09T18:23:01.369Z,2.60
2019-01-09T18:25:31.229Z,2.60
2019-01-09T18:28:00.108Z,2.60
2019-01-09T18:30:52.141Z,2.60
2019-01-09T18:33:30.280Z,2.50
2019-01-09T18:36:28.878Z,2.60
2019-01-09T18:39:31.672Z,2.60
2019-01-09T18:42:41.876Z,2.60
2019-01-09T18:45:22.513Z,2.60
2019-01-09T18:48:29.213Z,2.60
2019-01-09T18:51:46.725Z,2.60
2019-01-09T18:54:15.821Z,2.60
2019-01-09T18:56:44.771Z,2.60
2019-01-09T18:59:15.984Z,2.60
2019-01-09T19:01:45.120Z,2.50
2019-01-09T19:04:14.187Z,2.50
2019-01-09T19:06:43.447Z,2.60
2019-01-09T19:09:12.508Z,2.50
2019-01-09T19:11:50.291Z,2.50
2019-01-09T19:14:12.420Z,2.50
2019-01-09T19:16:41.570Z,2.60
2019-01-09T19:19:10.611Z,2.60
2019-01-09T19:21:39.720Z,2.50
2019-01-09T19:24:08.595Z,2.50
2019-01-09T19:26:37.751Z,2.40
2019-01-09T19:29:06.763Z,2.50
2019-01-09T19:31:35.858Z,2.50
2019-01-09T19:34:05.049Z,2.40
2019-01-09T19:36:34.159Z,2.40
2019-01-09T19:39:03.781Z,2.40
2019-01-09T19:41:32.730Z,2.40
2019-01-09T19:44:01.808Z,2.40
2019-01-09T19:46:30.888Z,2.40
2019-01-09T19:49:00.027Z,2.40
2019-01-09T19:51:29.097Z,2.40
2019-01-09T19:53:58.105Z,2.40
2019-01-09T19:56:27.068Z,2.40
2019-01-09T19:58:56.319Z,2.30
2019-01-09T20:01:25.441Z,2.30
2019-01-09T20:03:54.288Z,2.20
2019-01-09T20:06:23.298Z,2.10
2019-01-09T20:08:52.319Z,2.10
2019-01-09T20:11:26.303Z,2.00
2019-01-09T20:13:51.944Z,2.00
2019-01-09T20:16:20.916Z,1.90
2019-01-09T20:18:50.038Z,1.90
2019-01-09T20:21:19.209Z,1.90
2019-01-09T20:23:48.085Z,2.00
2019-01-09T20:26:17.125Z,2.00
2019-01-09T20:28:46.191Z,1.90
2019-01-09T20:31:15.445Z,1.90
2019-01-09T20:33:44.356Z,1.90
2019-01-09T20:36:14.333Z,1.90
2019-01-09T20:38:43.316Z,1.90
2019-01-09T20:41:12.289Z,2.00
2019-01-09T20:43:41.419Z,2.00
2019-01-09T20:46:10.432Z,2.00
2019-01-09T20:48:39.490Z,2.10
2019-01-09T20:51:08.664Z,2.10
2019-01-09T20:53:37.712Z,2.00
2019-01-09T20:56:06.648Z,2.10
2019-01-09T20:58:35.953Z,2.10
2019-01-09T21:01:05.495Z,2.10
2019-01-09T21:03:34.480Z,2.10
2019-01-09T21:06:05.296Z,2.00
2019-01-09T21:08:34.413Z,2.00
2019-01-09T21:11:03.489Z,2.00
2019-01-09T21:13:32.436Z,2.00
2019-01-09T21:16:01.537Z,2.00
2019-01-09T21:18:30.402Z,2.00
2019-01-09T21:20:59.315Z,1.90
2019-01-09T21:23:28.385Z,1.90
2019-01-09T21:25:57.354Z,1.90
2019-01-09T21:28:26.362Z,1.90
2019-01-09T21:30:55.417Z,2.00
2019-01-09T21:33:24.446Z,2.00
2019-01-09T21:35:53.425Z,1.90
2019-01-09T21:38:22.461Z,1.90
2019-01-09T21:40:52.018Z,2.00
2019-01-09T21:43:20.791Z,1.90
2019-01-09T21:45:49.908Z,1.90
2019-01-09T21:48:18.914Z,1.90
2019-01-09T21:50:47.804Z,1.90
2019-01-09T21:53:17.273Z,1.90
2019-01-09T21:55:46.270Z,1.80
2019-01-09T21:58:15.403Z,1.80
2019-01-09T22:00:44.614Z,1.80
2019-01-09T22:03:13.694Z,1.80
2019-01-09T22:05:42.686Z,1.80
2019-01-09T22:08:11.678Z,1.80
2019-01-09T22:10:40.564Z,1.80
2019-01-09T22:13:09.466Z,1.90
2019-01-09T22:15:38.521Z,1.80
2019-01-09T22:18:07.450Z,1.80
2019-01-09T22:20:36.545Z,1.70
2019-01-09T22:23:05.708Z,1.70
2019-01-09T22:25:34.645Z,1.70
2019-01-09T22:28:03.613Z,1.70
2019-01-09T22:30:32.658Z,1.70
2019-01-09T22:33:01.546Z,1.70
2019-01-09T22:35:30.490Z,1.70
2019-01-09T22:37:59.448Z,1.70
2019-01-09T22:40:28.367Z,1.70
2019-01-09T22:42:57.309Z,1.80
2019-01-09T22:45:26.120Z,1.70
2019-01-09T22:47:55.039Z,1.60
2019-01-09T22:50:24.518Z,1.60
2019-01-09T22:52:53.347Z,1.60
2019-01-09T22:55:22.205Z,1.60
2019-01-09T22:57:51.179Z,1.70
2019-01-09T23:01:02.025Z,1.70
2019-01-09T23:03:31.492Z,1.60
2019-01-09T23:06:00.471Z,1.60
2019-01-09T23:08:29.265Z,1.60
2019-01-09T23:10:58.090Z,1.60
2019-01-09T23:13:27.170Z,1.60
2019-01-09T23:15:55.982Z,1.60
2019-01-09T23:18:24.984Z,1.60
2019-01-09T23:20:53.944Z,1.60
2019-01-09T23:23:22.818Z,1.60
2019-01-09T23:25:51.813Z,1.50
2019-01-09T23:28:20.582Z,1.50
2019-01-09T23:30:49.533Z,1.50
2019-01-09T23:33:18.453Z,1.60
2019-01-09T23:35:47.446Z,1.60
2019-01-09T23:38:16.329Z,1.60
2019-01-09T23:40:45.105Z,1.60
2019-01-09T23:43:14.202Z,1.50
2019-01-09T23:45:43.120Z,1.50
2019-01-09T23:48:12.101Z,1.60
2019-01-09T23:50:41.062Z,1.60
2019-01-09T23:53:09.866Z,1.50
2019-01-09T23:55:38.778Z,1.50
2019-01-09T23:58:07.805Z,1.50
